createdAt,value
2019-03-09T00:03:24.616Z,85
2019-03-09T00:08:53.173Z,85
2019-03-09T00:14:20.557Z,85
2019-03-09T00:19:48.029Z,85
2019-03-09T00:25:15.481Z,85
2019-03-09T00:30:43.967Z,85
2019-03-09T00:36:12.455Z,85
2019-03-09T00:41:39.990Z,85
2019-03-09T00:47:07.375Z,85
2019-03-09T00:52:34.893Z,85
2019-03-09T00:58:02.919Z,85
2019-03-09T01:03:30.825Z,85
2019-03-09T01:08:58.280Z,85
2019-03-09T01:14:25.776Z,85
2019-03-09T01:19:53.236Z,86
2019-03-09T01:25:20.824Z,86
2019-03-09T01:30:49.205Z,86
2019-03-09T01:36:16.770Z,87
2019-03-09T01:41:44.196Z,88
2019-03-09T01:47:12.700Z,89
2019-03-09T01:52:40.300Z,89
2019-03-09T01:58:07.626Z,90
2019-03-09T02:03:35.126Z,91
2019-03-09T02:09:02.697Z,91
2019-03-09T02:14:30.317Z,92
2019-03-09T02:19:57.613Z,92
2019-03-09T02:25:26.082Z,92
2019-03-09T02:30:54.558Z,92
2019-03-09T02:36:23.070Z,93
2019-03-09T02:41:50.856Z,93
2019-03-09T02:47:18.021Z,93
2019-03-09T02:52:45.502Z,94
2019-03-09T02:58:13.054Z,94
2019-03-09T03:03:40.488Z,94
2019-03-09T03:09:07.958Z,94
2019-03-09T03:14:36.445Z,94
2019-03-09T03:20:03.894Z,94
2019-03-09T03:25:31.569Z,95
2019-03-09T03:30:58.902Z,95
2019-03-09T03:41:55.966Z,95
2019-03-09T03:47:23.323Z,96
2019-03-09T03:52:50.895Z,96
2019-03-09T03:58:19.362Z,96
2019-03-09T04:03:46.799Z,96
2019-03-09T04:09:14.347Z,97
2019-03-09T04:14:41.881Z,97
2019-03-09T04:20:10.458Z,97
2019-03-09T04:25:38.807Z,97
2019-03-09T04:31:07.327Z,98
2019-03-09T04:36:35.885Z,98
2019-03-09T04:42:03.343Z,98
2019-03-09T04:47:30.799Z,99
2019-03-09T04:52:59.383Z,99
2019-03-09T04:58:26.827Z,99
2019-03-09T05:03:55.402Z,99
2019-03-09T05:09:23.018Z,99
2019-03-09T05:14:52.839Z,99
2019-03-09T05:20:19.790Z,99
2019-03-09T05:25:47.625Z,99
2019-03-09T05:31:16.158Z,99
2019-03-09T05:36:44.700Z,98
2019-03-09T05:42:13.311Z,98
2019-03-09T05:47:41.788Z,97
2019-03-09T05:53:10.359Z,97
2019-03-09T05:58:37.933Z,96
2019-03-09T06:04:06.457Z,96
2019-03-09T06:09:35.085Z,96
2019-03-09T06:15:02.729Z,95
2019-03-09T06:20:31.105Z,94
2019-03-09T06:25:58.680Z,94
2019-03-09T06:31:26.194Z,93
2019-03-09T06:36:53.763Z,93
2019-03-09T06:42:22.297Z,93
2019-03-09T06:47:49.875Z,92
2019-03-09T06:53:17.449Z,92
2019-03-09T06:58:45.983Z,92
2019-03-09T07:04:13.565Z,91
2019-03-09T07:09:42.214Z,90
2019-03-09T07:15:09.690Z,90
2019-03-09T07:20:37.304Z,89
2019-03-09T07:26:05.803Z,89
2019-03-09T07:31:33.402Z,91
2019-03-09T07:37:01.069Z,91
2019-03-09T07:42:28.601Z,91
2019-03-09T07:47:57.129Z,89
2019-03-09T07:53:24.853Z,90
2019-03-09T07:58:56.768Z,88
2019-03-09T08:04:20.899Z,90
2019-03-09T08:09:47.294Z,91
2019-03-09T08:15:14.722Z,95
2019-03-09T08:20:43.210Z,95
2019-03-09T08:26:10.750Z,95
2019-03-09T08:31:39.189Z,95
2019-03-09T08:37:07.695Z,94
2019-03-09T08:42:35.219Z,94
2019-03-09T08:48:02.698Z,94
2019-03-09T08:53:31.197Z,94
2019-03-09T08:58:58.027Z,95
2019-03-09T09:04:25.296Z,94
2019-03-09T09:09:53.868Z,93
2019-03-09T09:15:21.500Z,92
2019-03-09T09:20:50.307Z,90
2019-03-09T09:26:17.751Z,91
2019-03-09T09:31:46.357Z,91
2019-03-09T09:37:14.957Z,91
2019-03-09T09:42:43.482Z,90
2019-03-09T09:48:12.155Z,88
2019-03-09T09:53:40.861Z,87
2019-03-09T09:59:08.414Z,88
2019-03-09T10:04:36.048Z,86
2019-03-09T10:10:04.815Z,83
2019-03-09T10:15:32.449Z,82
2019-03-09T10:20:59.996Z,81
2019-03-09T10:26:28.687Z,82
2019-03-09T10:31:57.335Z,83
2019-03-09T10:37:26.078Z,83
2019-03-09T10:42:54.649Z,83
2019-03-09T10:48:22.311Z,84
2019-03-09T10:53:50.003Z,83
2019-03-09T10:59:18.736Z,85
2019-03-09T11:04:46.625Z,82
2019-03-09T11:10:14.126Z,82
2019-03-09T11:15:42.965Z,81
2019-03-09T11:21:11.515Z,81
2019-03-09T11:26:39.180Z,80
2019-03-09T11:32:06.954Z,81
2019-03-09T11:37:35.542Z,81
2019-03-09T11:43:04.349Z,84
2019-03-09T11:48:32.071Z,84
2019-03-09T11:54:00.543Z,82
2019-03-09T11:59:29.217Z,81
2019-03-09T12:04:56.902Z,81
2019-03-09T12:10:25.772Z,80
2019-03-09T12:15:54.429Z,79
2019-03-09T12:21:22.978Z,81
2019-03-09T12:26:50.677Z,81
2019-03-09T12:32:18.257Z,81
2019-03-09T12:37:46.994Z,81
2019-03-09T12:43:14.526Z,80
2019-03-09T12:48:49.040Z,81
2019-03-09T12:54:10.912Z,81
2019-03-09T12:59:38.553Z,81
2019-03-09T13:05:06.221Z,80
2019-03-09T13:10:33.918Z,80
2019-03-09T13:16:01.522Z,80
2019-03-09T13:21:29.183Z,79
2019-03-09T13:26:56.879Z,80
2019-03-09T13:32:24.555Z,81
2019-03-09T13:37:55.590Z,81
2019-03-09T13:43:21.198Z,82
2019-03-09T13:48:49.584Z,80
2019-03-09T13:54:17.265Z,81
2019-03-09T13:59:44.950Z,80
2019-03-09T14:05:12.579Z,81
2019-03-09T14:10:41.426Z,81
2019-03-09T14:16:09.985Z,81
2019-03-09T14:21:38.606Z,82
2019-03-09T14:27:07.259Z,83
2019-03-09T14:32:34.910Z,81
2019-03-09T14:38:02.569Z,81
2019-03-09T14:43:30.087Z,83
2019-03-09T14:48:58.621Z,83
2019-03-09T14:54:27.208Z,85
2019-03-09T14:59:55.763Z,86
2019-03-09T15:05:24.300Z,86
2019-03-09T15:10:51.798Z,86
2019-03-09T15:16:22.353Z,86
2019-03-09T15:21:48.944Z,86
2019-03-09T15:27:16.398Z,87
2019-03-09T15:32:43.788Z,86
2019-03-09T15:38:11.264Z,87
2019-03-09T15:43:39.738Z,86
2019-03-09T15:49:07.351Z,85
2019-03-09T15:54:34.620Z,85
2019-03-09T16:00:03.101Z,85
2019-03-09T16:05:31.491Z,85
2019-03-09T16:10:59.869Z,85
2019-03-09T16:16:27.314Z,84
2019-03-09T16:21:54.839Z,84
2019-03-09T16:27:23.218Z,85
2019-03-09T16:32:50.576Z,85
2019-03-09T16:38:17.907Z,85
2019-03-09T16:43:46.376Z,85
2019-03-09T16:49:14.146Z,86
2019-03-09T16:54:42.122Z,85
2019-03-09T17:00:09.554Z,85
2019-03-09T17:05:37.036Z,84
2019-03-09T17:11:05.466Z,84
2019-03-09T17:16:32.838Z,85
2019-03-09T17:22:00.533Z,85
2019-03-09T17:27:28.653Z,86
2019-03-09T17:32:57.057Z,86
2019-03-09T17:38:24.390Z,86
2019-03-09T17:43:52.837Z,87
2019-03-09T17:49:22.262Z,87
2019-03-09T17:54:48.519Z,88
2019-03-09T18:00:15.905Z,88
2019-03-09T18:05:43.632Z,89
2019-03-09T18:11:10.623Z,90
2019-03-09T18:16:38.054Z,90
2019-03-09T18:22:06.593Z,90
2019-03-09T18:27:33.817Z,90
2019-03-09T18:33:01.212Z,90
2019-03-09T18:38:28.482Z,90
2019-03-09T18:43:56.913Z,91
2019-03-09T18:49:25.262Z,91
2019-03-09T18:54:53.660Z,91
2019-03-09T19:00:22.124Z,91
2019-03-09T19:05:49.463Z,91
2019-03-09T19:11:17.831Z,91
2019-03-09T19:16:46.242Z,91
2019-03-09T19:22:13.591Z,91
2019-03-09T19:27:42.004Z,91
2019-03-09T19:33:10.441Z,89
2019-03-09T19:38:37.797Z,88
2019-03-09T19:44:06.219Z,88
2019-03-09T19:49:33.626Z,87
2019-03-09T19:55:02.405Z,87
2019-03-09T20:00:29.428Z,86
2019-03-09T20:05:56.809Z,86
2019-03-09T20:11:25.174Z,86
2019-03-09T20:16:53.550Z,86
2019-03-09T20:22:21.048Z,86
2019-03-09T20:27:48.385Z,87
2019-03-09T20:33:15.784Z,88
2019-03-09T20:38:44.141Z,88
2019-03-09T20:44:11.473Z,88
2019-03-09T20:49:39.936Z,88
2019-03-09T20:55:08.294Z,88
2019-03-09T21:00:35.727Z,88
2019-03-09T21:06:04.270Z,88
2019-03-09T21:11:32.601Z,88
2019-03-09T21:16:59.996Z,88
2019-03-09T21:22:27.249Z,88
2019-03-09T21:27:54.774Z,87
2019-03-09T21:33:23.093Z,87
2019-03-09T21:38:51.195Z,87
2019-03-09T21:44:18.909Z,87
2019-03-09T21:49:46.530Z,87
2019-03-09T21:55:14.903Z,87
2019-03-09T22:00:43.223Z,88
2019-03-09T22:06:10.619Z,88
2019-03-09T22:11:38.108Z,88
2019-03-09T22:17:05.542Z,88
2019-03-09T22:22:33.987Z,88
2019-03-09T22:28:02.498Z,88
2019-03-09T22:33:30.868Z,88
2019-03-09T22:38:59.329Z,88
2019-03-09T22:44:26.955Z,88
2019-03-09T22:49:55.223Z,88
2019-03-09T22:55:23.837Z,87
2019-03-09T23:00:52.133Z,87
2019-03-09T23:06:20.638Z,87
2019-03-09T23:11:48.171Z,87
2019-03-09T23:17:16.583Z,87
2019-03-09T23:22:44.941Z,87
2019-03-09T23:28:12.467Z,88
2019-03-09T23:33:39.974Z,87
2019-03-09T23:39:07.548Z,87
2019-03-09T23:44:34.927Z,86
2019-03-09T23:50:03.464Z,86
2019-03-09T23:55:32.253Z,85
